Time;durP1;ratioP1;P1;durP2;ratioP2;P2;SDS_P1;SDS_P2;PMS_P1;PMS_P2;Temp;Humidity;BMP_temperature;BMP_pressure;BME280_temperature;BME280_humidity;BME280_pressure;Samples;Min_cycle;Max_cycle;Signal;HPM_P1;HPM_P2
2021/12/19 00:01:19;;;;;;;0.80;0.68;;;22.50;37.80;;;;;;5044389;28;20175;-51
2021/12/19 00:09:14;;;;;;;0.50;0.47;;;22.40;38.40;;;;;;5046615;28;20053;-55
2021/12/19 00:11:40;;;;;;;0.80;0.40;;;22.40;37.80;;;;;;5046652;28;20034;-54
2021/12/19 00:14:06;;;;;;;0.63;0.60;;;22.40;37.70;;;;;;5046802;28;20063;-56
2021/12/19 00:16:32;;;;;;;0.73;0.60;;;22.40;37.70;;;;;;5046156;28;20083;-55
2021/12/19 00:18:57;;;;;;;0.73;0.60;;;22.40;37.70;;;;;;5047497;28;20020;-56
2021/12/19 00:21:26;;;;;;;0.40;0.40;;;22.40;37.70;;;;;;5047456;28;20400;-56
2021/12/19 00:23:53;;;;;;;0.70;0.70;;;22.40;37.70;;;;;;5042961;28;20017;-54
2021/12/19 00:26:19;;;;;;;0.52;0.43;;;22.30;37.60;;;;;;5028538;28;20033;-51
2021/12/19 00:28:47;;;;;;;0.60;0.50;;;22.40;37.70;;;;;;5043383;28;20364;-55
2021/12/19 00:31:12;;;;;;;0.70;0.50;;;22.30;37.60;;;;;;5022536;28;20340;-53
2021/12/19 00:33:40;;;;;;;0.88;0.65;;;22.30;37.60;;;;;;5039264;28;20026;-51
2021/12/19 00:36:07;;;;;;;1.38;0.50;;;22.30;37.60;;;;;;5055363;28;20021;-52
2021/12/19 00:38:33;;;;;;;0.40;0.40;;;22.30;37.50;;;;;;5056072;28;20323;-49
2021/12/19 00:40:59;;;;;;;0.57;0.50;;;22.30;37.50;;;;;;5042866;28;20017;-55
2021/12/19 00:43:36;;;;;;;0.50;0.50;;;22.30;37.50;;;;;;5042532;28;20280;-54
2021/12/19 00:46:07;;;;;;;0.40;0.40;;;22.30;37.50;;;;;;5037846;28;20526;-54
2021/12/19 00:48:40;;;;;;;0.40;0.40;;;22.30;37.50;;;;;;5043104;28;20075;-57
2021/12/19 00:51:07;;;;;;;0.50;0.50;;;22.20;37.50;;;;;;5051274;28;20452;-53
2021/12/19 00:53:33;;;;;;;0.70;0.50;;;22.20;37.50;;;;;;5047393;28;20016;-53
2021/12/19 00:56:00;;;;;;;0.55;0.50;;;22.20;37.50;;;;;;5039012;28;20025;-56
2021/12/19 00:58:26;;;;;;;0.40;0.40;;;22.20;37.50;;;;;;5046082;28;20024;-52
2021/12/19 01:00:52;;;;;;;0.73;0.55;;;22.20;37.50;;;;;;5037900;28;20030;-55
2021/12/19 01:03:18;;;;;;;0.50;0.50;;;22.20;37.50;;;;;;5047889;28;20035;-53
2021/12/19 01:05:45;;;;;;;0.40;0.40;;;22.20;37.50;;;;;;5041534;28;20109;-53
2021/12/19 01:08:12;;;;;;;0.50;0.50;;;22.20;37.60;;;;;;5041498;28;20409;-51
2021/12/19 01:10:39;;;;;;;0.68;0.50;;;22.10;37.60;;;;;;5037714;28;20095;-49
2021/12/19 01:13:05;;;;;;;0.77;0.50;;;22.20;37.60;;;;;;5046493;28;20029;-55
2021/12/19 01:15:32;;;;;;;0.40;0.40;;;22.20;37.70;;;;;;5041975;28;20031;-55
2021/12/19 01:17:59;;;;;;;0.75;0.60;;;22.10;37.60;;;;;;5038949;28;20021;-56
2021/12/19 01:20:28;;;;;;;0.60;0.50;;;22.10;37.60;;;;;;5042762;28;20031;-51
2021/12/19 01:22:56;;;;;;;0.65;0.50;;;22.20;37.60;;;;;;5045052;28;20482;-49
2021/12/19 01:25:22;;;;;;;0.60;0.50;;;22.20;37.60;;;;;;5041919;28;20025;-56
2021/12/19 01:27:48;;;;;;;0.40;0.40;;;22.10;37.60;;;;;;5049385;28;20334;-52
2021/12/19 01:30:15;;;;;;;0.60;0.50;;;22.10;37.60;;;;;;5049974;28;20025;-55
2021/12/19 01:32:41;;;;;;;0.55;0.40;;;22.10;37.70;;;;;;5043240;28;20079;-53
2021/12/19 01:35:09;;;;;;;0.68;0.50;;;22.10;37.60;;;;;;5049536;28;20057;-54
2021/12/19 01:37:36;;;;;;;0.63;0.45;;;22.10;37.60;;;;;;5040913;28;20311;-55
2021/12/19 01:40:21;;;;;;;0.30;0.30;;;22.10;37.60;;;;;;5038937;28;20916;-57
2021/12/19 01:42:54;;;;;;;0.47;0.40;;;22.10;37.60;;;;;;5044522;28;20494;-54
2021/12/19 01:45:29;;;;;;;0.40;0.40;;;22.10;37.60;;;;;;5050259;28;20333;-55
2021/12/19 01:47:59;;;;;;;0.60;0.40;;;22.10;37.60;;;;;;5046670;28;20032;-55
2021/12/19 01:50:26;;;;;;;0.60;0.40;;;22.10;37.60;;;;;;5038658;28;20079;-55
2021/12/19 01:52:53;;;;;;;0.40;0.40;;;22.10;37.70;;;;;;5035819;28;20336;-56
2021/12/19 01:55:19;;;;;;;0.50;0.40;;;22.10;37.70;;;;;;5051951;28;20025;-53
2021/12/19 01:57:45;;;;;;;0.47;0.40;;;22.10;38.30;;;;;;5036637;28;20109;-57
2021/12/19 02:00:26;;;;;;;0.40;0.35;;;22.00;37.60;;;;;;5040556;28;20333;-54
2021/12/19 02:02:53;;;;;;;0.40;0.40;;;22.10;37.70;;;;;;5042456;28;20047;-55
2021/12/19 02:05:20;;;;;;;0.90;0.52;;;22.00;37.60;;;;;;5036253;28;20044;-52
2021/12/19 02:07:47;;;;;;;0.60;0.50;;;22.00;37.70;;;;;;5053895;28;20025;-53
2021/12/19 02:10:18;;;;;;;0.52;0.38;;;22.00;37.70;;;;;;5046407;28;20025;-53
2021/12/19 02:12:47;;;;;;;0.47;0.40;;;22.00;37.70;;;;;;5036301;28;20044;-54
2021/12/19 02:15:20;;;;;;;0.70;0.60;;;22.00;37.70;;;;;;5046734;28;20033;-55
2021/12/19 02:17:48;;;;;;;0.85;0.60;;;22.00;37.70;;;;;;5038998;28;20025;-54
2021/12/19 02:20:15;;;;;;;0.68;0.52;;;22.00;37.70;;;;;;5043900;28;20052;-52
2021/12/19 02:22:41;;;;;;;0.50;0.43;;;22.00;37.70;;;;;;5040661;28;20100;-55
2021/12/19 02:25:07;;;;;;;0.70;0.60;;;22.00;37.70;;;;;;5041145;28;20017;-52
2021/12/19 02:27:33;;;;;;;0.60;0.55;;;22.00;37.70;;;;;;5038041;28;20025;-55
2021/12/19 02:29:59;;;;;;;1.30;0.60;;;22.00;37.80;;;;;;5039105;28;20029;-54
2021/12/19 02:32:27;;;;;;;0.50;0.50;;;22.00;37.70;;;;;;5044094;28;20040;-54
2021/12/19 02:34:56;;;;;;;0.95;0.65;;;22.00;37.80;;;;;;5040129;28;20056;-53
2021/12/19 02:49:23;;;;;;;0.50;0.40;;;21.90;37.80;;;;;;5052893;28;20043;-56
2021/12/19 02:51:51;;;;;;;0.40;0.30;;;21.90;37.80;;;;;;5037547;28;20028;-51
2021/12/19 02:54:17;;;;;;;0.50;0.40;;;21.90;37.80;;;;;;5052437;28;20024;-50
2021/12/19 02:56:43;;;;;;;0.20;0.20;;;21.90;37.80;;;;;;5037640;28;20030;-54
2021/12/19 02:59:09;;;;;;;0.30;0.30;;;21.90;37.80;;;;;;5044047;28;20412;-56
2021/12/19 03:01:34;;;;;;;0.40;0.30;;;21.90;37.80;;;;;;5039854;28;20033;-55
2021/12/19 03:04:00;;;;;;;0.20;0.20;;;21.90;37.80;;;;;;5046658;28;20037;-50
2021/12/19 03:06:26;;;;;;;0.20;0.20;;;21.90;37.80;;;;;;5047857;28;20029;-54
2021/12/19 03:08:52;;;;;;;0.20;0.20;;;21.90;37.80;;;;;;5050010;28;20064;-53
2021/12/19 03:11:57;;;;;;;0.25;0.20;;;21.90;37.80;;;;;;5051739;28;20316;-54
2021/12/19 03:19:40;;;;;;;0.70;0.50;;;21.90;37.90;;;;;;5035551;28;20128;-56
2021/12/19 03:22:06;;;;;;;0.40;0.25;;;21.90;37.90;;;;;;5039668;28;20132;-51
2021/12/19 03:24:32;;;;;;;0.30;0.20;;;21.90;37.90;;;;;;5034493;28;20044;-54
2021/12/19 03:26:57;;;;;;;0.43;0.30;;;21.90;37.90;;;;;;5045562;28;20021;-53
2021/12/19 03:29:23;;;;;;;0.95;0.20;;;21.90;37.80;;;;;;5039108;28;20048;-51
2021/12/19 03:31:49;;;;;;;2.45;0.22;;;21.80;37.80;;;;;;5039809;28;20048;-53
2021/12/19 03:34:15;;;;;;;0.30;0.28;;;21.90;37.90;;;;;;5044851;28;20033;-52
2021/12/19 03:36:41;;;;;;;0.20;0.20;;;21.90;37.90;;;;;;5046275;28;20021;-56
2021/12/19 03:39:25;;;;;;;0.40;0.40;;;21.80;37.80;;;;;;5036084;28;20026;-52
2021/12/19 03:41:54;;;;;;;0.47;0.30;;;21.80;37.80;;;;;;5048474;28;20031;-47
2021/12/19 03:44:20;;;;;;;0.30;0.30;;;21.80;37.90;;;;;;5051578;28;20044;-52
2021/12/19 03:46:45;;;;;;;0.30;0.20;;;21.90;37.90;;;;;;5046654;28;20028;-52
2021/12/19 03:49:11;;;;;;;0.38;0.30;;;21.80;37.90;;;;;;5041942;28;20046;-53
2021/12/19 03:51:37;;;;;;;0.25;0.20;;;21.80;37.90;;;;;;5038899;28;20025;-57
2021/12/19 03:54:03;;;;;;;0.35;0.20;;;21.80;37.90;;;;;;5034333;28;20030;-52
2021/12/19 03:56:29;;;;;;;0.40;0.32;;;21.80;37.90;;;;;;5041939;28;20042;-55
2021/12/19 03:58:55;;;;;;;0.30;0.25;;;21.80;37.90;;;;;;5043856;28;20026;-50
2021/12/19 04:01:21;;;;;;;0.20;0.20;;;21.80;37.90;;;;;;5045019;28;20111;-54
2021/12/19 04:03:47;;;;;;;0.20;0.20;;;21.80;37.90;;;;;;5051037;28;20025;-52
2021/12/19 04:06:13;;;;;;;0.40;0.20;;;21.80;38.00;;;;;;5044763;28;20037;-55
2021/12/19 04:08:39;;;;;;;0.60;0.35;;;21.80;38.00;;;;;;5048799;28;20436;-56
2021/12/19 04:11:05;;;;;;;0.20;0.20;;;21.80;38.00;;;;;;5035904;28;20094;-55
2021/12/19 04:13:30;;;;;;;0.43;0.32;;;21.80;38.00;;;;;;5051195;28;20079;-52
2021/12/19 04:15:56;;;;;;;0.50;0.20;;;21.80;38.00;;;;;;5041995;28;20167;-51
2021/12/19 04:18:22;;;;;;;0.40;0.22;;;21.80;38.00;;;;;;5051697;28;20032;-52
2021/12/19 04:20:48;;;;;;;0.60;0.30;;;21.80;38.10;;;;;;5044372;28;20025;-55
2021/12/19 04:23:14;;;;;;;0.30;0.30;;;21.80;38.10;;;;;;5044354;28;20043;-56
2021/12/19 04:25:40;;;;;;;0.20;0.20;;;21.80;38.10;;;;;;5046409;28;20021;-49
2021/12/19 04:28:06;;;;;;;0.38;0.30;;;21.70;38.00;;;;;;5044882;28;20428;-52
2021/12/19 04:30:32;;;;;;;0.30;0.20;;;21.70;38.00;;;;;;5038693;28;20033;-53
2021/12/19 04:33:04;;;;;;;0.55;0.40;;;21.70;38.00;;;;;;5037678;28;20348;-55
2021/12/19 04:35:34;;;;;;;0.40;0.20;;;21.70;38.00;;;;;;5041341;28;20319;-53
2021/12/19 04:57:06;;;;;;;0.60;0.30;;;21.70;38.20;;;;;;5039999;28;20032;-53
2021/12/19 05:15:52;;;;;;;0.43;0.30;;;21.70;38.40;;;;;;5042431;28;20395;-53
2021/12/19 05:18:21;;;;;;;0.40;0.40;;;21.60;38.30;;;;;;5039652;28;20171;-53
2021/12/19 05:20:55;;;;;;;0.60;0.20;;;21.60;38.40;;;;;;5046795;28;20036;-54
2021/12/19 05:23:39;;;;;;;0.77;0.50;;;21.70;38.40;;;;;;5046820;28;20021;-55
2021/12/19 05:26:06;;;;;;;0.30;0.25;;;21.70;38.40;;;;;;5040915;28;20034;-52
2021/12/19 05:28:32;;;;;;;0.50;0.40;;;21.60;38.40;;;;;;5048655;28;20037;-57
2021/12/19 05:30:58;;;;;;;1.05;0.40;;;21.60;38.40;;;;;;5040017;28;20017;-52
2021/12/19 05:33:24;;;;;;;0.40;0.40;;;21.60;38.40;;;;;;5030311;28;20720;-55
2021/12/19 05:46:34;;;;;;;0.77;0.40;;;21.60;39.10;;;;;;5048580;28;20094;-49
2021/12/19 05:49:01;;;;;;;0.30;0.28;;;21.60;38.50;;;;;;5050281;28;20041;-51
2021/12/19 05:51:27;;;;;;;0.40;0.40;;;21.60;38.50;;;;;;5046823;28;20373;-54
2021/12/19 05:53:53;;;;;;;0.40;0.30;;;21.60;38.50;;;;;;5040555;28;20360;-54
2021/12/19 05:56:19;;;;;;;0.40;0.30;;;21.60;38.50;;;;;;5026066;28;20037;-55
2021/12/19 05:58:45;;;;;;;0.30;0.30;;;21.60;38.50;;;;;;5043185;28;20025;-54
2021/12/19 06:01:11;;;;;;;0.20;0.20;;;21.60;38.50;;;;;;5047251;28;20087;-50
2021/12/19 06:03:36;;;;;;;0.40;0.40;;;21.60;38.60;;;;;;5040890;28;20017;-51
2021/12/19 06:06:02;;;;;;;1.08;0.40;;;21.60;38.60;;;;;;5051619;28;20035;-56
2021/12/19 06:08:28;;;;;;;0.40;0.40;;;21.60;38.60;;;;;;5039291;28;20045;-51
2021/12/19 06:10:54;;;;;;;0.30;0.30;;;21.60;38.60;;;;;;5047215;28;20032;-55
2021/12/19 06:13:20;;;;;;;0.30;0.30;;;21.60;38.60;;;;;;5039649;28;20108;-53
2021/12/19 06:15:50;;;;;;;0.40;0.40;;;21.60;38.60;;;;;;5041151;28;20344;-54
2021/12/19 06:18:15;;;;;;;0.28;0.28;;;21.60;38.60;;;;;;5036366;28;20061;-57
2021/12/19 06:20:41;;;;;;;0.20;0.20;;;21.60;38.70;;;;;;5051883;28;20048;-53
2021/12/19 06:23:09;;;;;;;0.22;0.22;;;21.60;38.60;;;;;;5025621;28;20496;-52
2021/12/19 06:25:35;;;;;;;0.25;0.25;;;21.60;38.60;;;;;;5044366;28;20028;-55
2021/12/19 06:28:01;;;;;;;0.20;0.20;;;21.60;38.60;;;;;;5037522;28;20433;-55
2021/12/19 06:30:27;;;;;;;0.10;0.10;;;21.60;38.60;;;;;;5037340;28;20032;-53
2021/12/19 06:32:53;;;;;;;0.10;0.10;;;21.60;38.60;;;;;;5045182;28;20035;-55
2021/12/19 06:35:22;;;;;;;0.20;0.20;;;21.60;38.60;;;;;;5038955;28;20397;-50
2021/12/19 06:37:49;;;;;;;0.10;0.10;;;21.60;38.60;;;;;;5040920;28;20124;-53
2021/12/19 06:40:18;;;;;;;0.30;0.30;;;21.60;38.60;;;;;;5047208;28;20041;-52
2021/12/19 06:42:44;;;;;;;0.35;0.20;;;21.60;38.60;;;;;;5035285;28;20032;-53
2021/12/19 06:45:11;;;;;;;0.10;0.10;;;21.50;38.50;;;;;;5044670;28;20021;-51
2021/12/19 06:47:37;;;;;;;0.85;0.10;;;21.60;38.60;;;;;;5043045;28;20466;-49
2021/12/19 06:50:04;;;;;;;0.15;0.10;;;21.50;38.50;;;;;;5050150;28;20072;-54
2021/12/19 06:52:30;;;;;;;0.52;0.20;;;21.60;38.60;;;;;;5049442;28;20021;-51
2021/12/19 06:54:56;;;;;;;0.10;0.10;;;21.50;39.20;;;;;;5047281;28;20094;-53
2021/12/19 06:57:22;;;;;;;0.30;0.10;;;21.50;38.50;;;;;;5039162;28;20025;-53
2021/12/19 06:59:48;;;;;;;0.00;0.00;;;21.50;38.50;;;;;;5043489;28;20017;-49
2021/12/19 07:02:16;;;;;;;0.00;0.00;;;21.50;39.00;;;;;;5047557;28;20337;-54
2021/12/19 07:04:43;;;;;;;0.10;0.10;;;21.50;38.40;;;;;;5041678;28;20040;-51
2021/12/19 07:07:09;;;;;;;0.20;0.08;;;21.60;38.40;;;;;;5048209;28;20067;-52
2021/12/19 07:09:35;;;;;;;0.10;0.05;;;21.50;38.30;;;;;;5044170;28;20134;-48
2021/12/19 07:12:02;;;;;;;0.10;0.10;;;21.50;38.30;;;;;;5046284;28;20444;-50
2021/12/19 07:14:28;;;;;;;2.53;0.10;;;21.50;38.30;;;;;;5044881;28;20333;-51
2021/12/19 07:16:54;;;;;;;0.10;0.10;;;21.50;38.20;;;;;;5034804;28;20021;-51
2021/12/19 07:19:20;;;;;;;0.22;0.10;;;21.50;38.30;;;;;;5026021;28;20028;-51
2021/12/19 07:21:46;;;;;;;0.10;0.10;;;21.50;38.20;;;;;;5039527;28;20060;-51
2021/12/19 07:24:11;;;;;;;0.20;0.10;;;21.50;38.20;;;;;;5039821;28;20044;-51
2021/12/19 07:26:37;;;;;;;0.05;0.05;;;21.50;38.20;;;;;;5037660;28;20029;-48
2021/12/19 07:29:03;;;;;;;0.05;0.03;;;21.50;38.20;;;;;;5044390;28;20128;-50
2021/12/19 07:31:30;;;;;;;0.00;0.00;;;21.50;38.20;;;;;;5054564;28;20309;-49
2021/12/19 07:33:57;;;;;;;0.43;0.00;;;21.50;38.20;;;;;;5039870;28;20031;-52
2021/12/19 07:36:25;;;;;;;0.10;0.10;;;21.50;38.20;;;;;;5039903;28;20456;-49
2021/12/19 07:39:21;;;;;;;0.90;0.10;;;21.50;38.20;;;;;;5041480;28;20025;-52
2021/12/19 07:41:41;;;;;;;0.20;0.20;;;21.50;38.20;;;;;;5038343;28;20032;-52
2021/12/19 07:44:08;;;;;;;0.13;0.10;;;21.50;38.20;;;;;;5035317;28;20029;-51
2021/12/19 07:46:34;;;;;;;0.30;0.10;;;21.50;38.20;;;;;;5038408;28;20036;-49
2021/12/19 07:49:00;;;;;;;0.32;0.10;;;21.40;38.10;;;;;;5037564;28;20033;-52
2021/12/19 07:51:25;;;;;;;0.00;0.00;;;21.50;38.20;;;;;;5037206;28;20447;-54
2021/12/19 07:53:51;;;;;;;0.08;0.03;;;21.50;38.20;;;;;;5041599;28;20094;-50
2021/12/19 07:56:17;;;;;;;0.08;0.08;;;21.40;38.20;;;;;;5043445;28;20033;-53
2021/12/19 07:58:43;;;;;;;0.10;0.10;;;21.40;38.20;;;;;;5043659;28;20502;-55
2021/12/19 08:01:08;;;;;;;0.10;0.10;;;21.40;38.20;;;;;;5046566;28;20037;-52
2021/12/19 08:03:34;;;;;;;0.20;0.10;;;21.40;38.20;;;;;;5036219;28;20108;-52
2021/12/19 08:06:00;;;;;;;0.63;0.13;;;21.40;38.20;;;;;;5042633;28;20048;-48
2021/12/19 08:08:28;;;;;;;0.10;0.00;;;21.40;38.20;;;;;;5044254;28;20032;-55
2021/12/19 08:13:39;;;;;;;0.32;0.08;;;21.40;38.10;;;;;;5054172;28;20025;-56
2021/12/19 08:16:05;;;;;;;0.17;0.10;;;21.40;38.20;;;;;;5053925;28;20036;-54
2021/12/19 08:18:31;;;;;;;0.10;0.10;;;21.40;38.20;;;;;;5056475;28;20025;-52
2021/12/19 08:20:57;;;;;;;0.10;0.10;;;21.40;38.20;;;;;;5057679;28;20043;-54
2021/12/19 08:23:22;;;;;;;0.00;0.00;;;21.40;38.20;;;;;;5040231;28;20037;-53
2021/12/19 08:25:48;;;;;;;0.10;0.10;;;21.40;38.20;;;;;;5051591;28;20029;-52
2021/12/19 08:28:14;;;;;;;0.10;0.10;;;21.40;38.80;;;;;;5050270;28;20017;-55
2021/12/19 08:30:40;;;;;;;0.20;0.05;;;21.40;38.20;;;;;;5056598;28;20017;-53
2021/12/19 08:33:06;;;;;;;0.00;0.00;;;21.40;38.30;;;;;;5057022;28;20337;-53
2021/12/19 08:35:31;;;;;;;0.08;0.00;;;21.40;38.30;;;;;;5056653;28;20033;-53
2021/12/19 08:37:58;;;;;;;0.13;0.10;;;21.40;38.40;;;;;;5056981;28;20044;-53
2021/12/19 08:40:28;;;;;;;0.30;0.08;;;21.50;38.40;;;;;;5057264;28;20049;-55
2021/12/19 08:42:54;;;;;;;0.03;0.00;;;21.50;38.40;;;;;;5047038;28;20036;-52
2021/12/19 08:45:21;;;;;;;0.00;0.00;;;21.60;38.40;;;;;;5058145;28;20025;-53
2021/12/19 08:47:47;;;;;;;0.10;0.10;;;21.60;38.30;;;;;;5057685;28;20032;-54
2021/12/19 08:50:14;;;;;;;0.10;0.10;;;21.70;38.20;;;;;;5057358;28;20070;-54
2021/12/19 08:52:40;;;;;;;0.00;0.00;;;21.70;38.10;;;;;;5057386;28;20060;-57
2021/12/19 08:55:07;;;;;;;0.15;0.08;;;21.80;38.10;;;;;;5057505;28;20445;-55
2021/12/19 08:57:33;;;;;;;1.27;0.10;;;21.90;38.10;;;;;;5057050;28;20351;-56
2021/12/19 08:59:59;;;;;;;1.65;0.08;;;22.00;38.20;;;;;;5057466;28;20041;-54
2021/12/19 09:02:25;;;;;;;0.30;0.00;;;22.00;38.10;;;;;;5056699;28;20048;-57
2021/12/19 09:04:51;;;;;;;0.10;0.00;;;22.10;38.10;;;;;;5039923;28;20039;-60
2021/12/19 09:07:18;;;;;;;0.30;0.10;;;22.20;38.00;;;;;;5056912;28;20052;-60
2021/12/19 09:09:48;;;;;;;0.20;0.10;;;22.20;37.90;;;;;;5048667;28;20029;-57
2021/12/19 09:12:14;;;;;;;0.10;0.10;;;22.30;37.70;;;;;;5046929;28;20037;-57
2021/12/19 09:14:40;;;;;;;0.10;0.00;;;22.30;37.60;;;;;;5047256;28;20083;-60
2021/12/19 09:17:06;;;;;;;0.00;0.00;;;22.40;37.60;;;;;;5053069;28;20024;-56
2021/12/19 09:19:32;;;;;;;0.10;0.10;;;22.50;37.50;;;;;;5039566;28;20344;-58
2021/12/19 09:21:57;;;;;;;0.22;0.10;;;22.50;37.40;;;;;;5042910;28;20018;-53
2021/12/19 09:24:23;;;;;;;0.10;0.10;;;22.60;37.30;;;;;;5036978;28;20025;-56
2021/12/19 09:26:49;;;;;;;0.00;0.00;;;22.60;37.20;;;;;;5054500;28;20028;-59
2021/12/19 09:29:15;;;;;;;0.13;0.08;;;22.70;37.20;;;;;;5056059;28;20036;-57
2021/12/19 09:31:41;;;;;;;0.20;0.10;;;22.70;37.10;;;;;;5055868;28;20044;-54
2021/12/19 09:34:07;;;;;;;0.20;0.10;;;22.80;37.10;;;;;;5057075;28;20063;-56
2021/12/19 09:36:34;;;;;;;0.15;0.10;;;22.80;37.00;;;;;;5056543;28;20028;-55
2021/12/19 09:39:01;;;;;;;0.17;0.10;;;22.90;37.00;;;;;;5056726;28;20110;-57
2021/12/19 09:41:33;;;;;;;0.10;0.10;;;22.90;37.00;;;;;;5038204;28;20039;-57
2021/12/19 09:44:02;;;;;;;0.20;0.20;;;22.90;36.90;;;;;;5056459;28;20110;-53
2021/12/19 09:46:31;;;;;;;0.25;0.10;;;23.00;36.80;;;;;;5038969;28;20374;-56
2021/12/19 09:48:57;;;;;;;0.47;0.20;;;23.10;36.80;;;;;;5055687;28;20443;-58
2021/12/19 09:51:26;;;;;;;0.10;0.10;;;23.10;36.70;;;;;;5055848;28;20037;-57
2021/12/19 09:53:52;;;;;;;0.10;0.10;;;23.20;36.70;;;;;;5054927;28;20013;-50
2021/12/19 09:56:18;;;;;;;0.20;0.20;;;23.20;36.60;;;;;;5054450;28;20032;-49
2021/12/19 09:58:44;;;;;;;1.02;0.20;;;23.30;36.60;;;;;;5055796;28;20313;-56
2021/12/19 10:01:12;;;;;;;1.20;0.20;;;23.30;36.60;;;;;;5055362;28;20040;-61
2021/12/19 10:03:38;;;;;;;1.05;0.30;;;23.30;36.60;;;;;;5056503;28;20025;-58
2021/12/19 10:06:20;;;;;;;2.97;0.38;;;23.40;36.60;;;;;;5055729;28;20036;-45
2021/12/19 10:08:52;;;;;;;0.30;0.30;;;23.40;36.50;;;;;;5056176;28;20040;-49
2021/12/19 10:11:48;;;;;;;0.68;0.25;;;23.40;36.40;;;;;;5056111;28;20324;-60
2021/12/19 10:14:28;;;;;;;0.30;0.30;;;23.40;36.20;;;;;;5055062;28;20067;-57
2021/12/19 10:16:56;;;;;;;1.88;0.65;;;23.30;36.10;;;;;;5056278;28;20078;-57
2021/12/19 10:19:44;;;;;;;4.55;2.10;;;23.20;36.20;;;;;;5055801;28;20376;-57
2021/12/19 10:22:47;;;;;;;10.20;4.57;;;23.20;36.60;;;;;;5054260;28;20025;-58
2021/12/19 10:25:20;;;;;;;13.93;6.38;;;23.20;37.60;;;;;;4985899;28;20040;-58
2021/12/19 10:27:50;;;;;;;14.70;6.93;;;23.20;38.70;;;;;;5054600;28;20037;-61
2021/12/19 10:30:20;;;;;;;15.57;6.25;;;23.20;39.70;;;;;;5055095;28;20057;-60
2021/12/19 10:33:12;;;;;;;13.55;7.18;;;23.30;40.20;;;;;;5055669;28;20048;-57
2021/12/19 10:35:57;;;;;;;19.48;8.50;;;23.30;40.50;;;;;;5054477;28;20043;-55
2021/12/19 10:38:24;;;;;;;19.95;8.55;;;23.30;41.40;;;;;;5055306;28;20043;-55
2021/12/19 10:40:53;;;;;;;22.10;10.77;;;23.40;42.10;;;;;;5054112;28;20025;-51
2021/12/19 10:43:20;;;;;;;30.98;13.45;;;23.40;43.00;;;;;;5055578;28;20364;-56
2021/12/19 10:45:47;;;;;;;30.48;13.98;;;23.50;44.10;;;;;;5055403;28;20082;-56
2021/12/19 10:48:28;;;;;;;31.70;13.57;;;23.50;44.90;;;;;;5055070;28;20024;-59
2021/12/19 10:50:57;;;;;;;30.85;13.70;;;23.60;45.30;;;;;;5054990;28;20059;-58
2021/12/19 10:53:33;;;;;;;34.88;14.75;;;23.60;45.60;;;;;;5055092;28;20040;-56
2021/12/19 10:56:01;;;;;;;32.90;15.45;;;23.60;46.40;;;;;;5037161;28;20093;-52
2021/12/19 10:58:58;;;;;;;33.17;15.30;;;23.70;47.40;;;;;;5054961;28;20037;-63
2021/12/19 11:01:29;;;;;;;31.80;14.38;;;23.70;48.00;;;;;;5029588;28;20605;-59
2021/12/19 11:03:59;;;;;;;35.45;16.48;;;23.80;49.10;;;;;;5050457;28;20443;-60
2021/12/19 11:06:48;;;;;;;28.58;15.25;;;23.80;48.70;;;;;;5036979;28;20025;-59
2021/12/19 11:09:22;;;;;;;18.17;9.48;;;23.80;48.10;;;;;;5045511;28;20124;-57
2021/12/19 11:12:08;;;;;;;14.80;6.72;;;23.80;47.00;;;;;;5055003;28;20021;-52
2021/12/19 11:14:47;;;;;;;9.93;5.68;;;23.80;46.40;;;;;;5055205;28;20025;-56
2021/12/19 11:17:22;;;;;;;8.20;4.40;;;23.80;44.70;;;;;;5053535;28;20017;-58
2021/12/19 11:19:54;;;;;;;5.55;3.20;;;23.80;43.80;;;;;;5054849;28;20306;-56
2021/12/19 11:22:24;;;;;;;6.35;2.10;;;23.90;43.30;;;;;;5047263;28;20348;-51
2021/12/19 11:24:56;;;;;;;4.45;2.25;;;23.80;42.50;;;;;;5034608;28;20083;-60
2021/12/19 11:27:22;;;;;;;5.45;1.58;;;23.80;41.70;;;;;;5043634;28;20447;-61
2021/12/19 11:29:51;;;;;;;3.80;1.23;;;23.80;41.30;;;;;;5038078;28;20096;-62
2021/12/19 11:32:52;;;;;;;4.25;1.45;;;23.80;40.80;;;;;;5044809;28;20032;-56
2021/12/19 11:35:24;;;;;;;2.05;0.90;;;23.80;40.40;;;;;;5039404;28;20045;-64
2021/12/19 11:37:53;;;;;;;2.85;1.15;;;23.70;40.20;;;;;;5043670;28;20096;-61
2021/12/19 11:40:20;;;;;;;5.25;1.27;;;23.70;40.00;;;;;;5038508;28;20040;-64
2021/12/19 11:42:48;;;;;;;3.65;1.25;;;23.70;39.90;;;;;;5041944;28;20018;-62
2021/12/19 11:45:31;;;;;;;1.58;1.05;;;23.70;39.60;;;;;;5042699;28;20108;-61
2021/12/19 11:48:13;;;;;;;2.78;0.90;;;23.60;39.40;;;;;;5041074;28;20032;-61
2021/12/19 11:50:52;;;;;;;2.65;1.10;;;23.60;39.20;;;;;;5036573;28;20029;-61
2021/12/19 11:53:19;;;;;;;2.22;0.95;;;23.60;39.00;;;;;;5051583;28;20347;-61
2021/12/19 11:55:47;;;;;;;1.67;0.90;;;23.60;38.90;;;;;;5050666;28;20155;-61
2021/12/19 11:58:16;;;;;;;1.88;0.88;;;23.60;38.80;;;;;;5047504;28;20075;-61
2021/12/19 12:00:54;;;;;;;1.92;0.80;;;23.60;38.60;;;;;;5052243;28;20025;-61
2021/12/19 12:03:28;;;;;;;0.93;0.63;;;23.60;38.40;;;;;;5049549;28;20052;-61
2021/12/19 12:06:17;;;;;;;;;;;23.60;38.30;;;;;;5053924;28;20040;-61
2021/12/19 12:09:07;;;;;;;1.02;0.57;;;23.60;38.30;;;;;;5037858;28;19939;-61
2021/12/19 12:11:38;;;;;;;1.10;0.70;;;23.60;38.20;;;;;;5056412;28;20044;-59
2021/12/19 12:14:40;;;;;;;1.38;1.00;;;23.60;38.20;;;;;;5028034;28;20047;-63
2021/12/19 12:17:20;;;;;;;0.80;0.50;;;23.60;37.90;;;;;;5018249;28;20444;-60
2021/12/19 12:19:52;;;;;;;1.20;0.70;;;23.50;37.90;;;;;;5056949;28;20045;-60
2021/12/19 12:23:05;;;;;;;0.90;0.57;;;23.50;37.90;;;;;;5056850;28;20040;-59
2021/12/19 12:25:19;;;;;;;1.42;0.60;;;23.50;37.90;;;;;;5050423;28;20041;-58
2021/12/19 12:27:51;;;;;;;1.60;0.60;;;23.40;37.80;;;;;;5037968;28;20363;-56
2021/12/19 12:30:23;;;;;;;0.95;0.60;;;23.50;37.90;;;;;;5054170;28;20138;-62
2021/12/19 12:32:49;;;;;;;0.65;0.60;;;23.50;37.80;;;;;;5044778;28;20048;-61
2021/12/19 12:35:16;;;;;;;1.40;0.52;;;23.50;37.80;;;;;;5026553;28;20056;-58
2021/12/19 12:37:43;;;;;;;0.85;0.60;;;23.50;37.80;;;;;;5052316;28;20059;-60
2021/12/19 12:40:17;;;;;;;1.38;0.68;;;23.50;37.70;;;;;;5053380;28;20021;-58
2021/12/19 12:43:01;;;;;;;0.95;0.50;;;23.50;37.70;;;;;;5045837;28;20025;-56
2021/12/19 12:45:30;;;;;;;0.82;0.40;;;23.50;37.60;;;;;;5038087;28;20071;-61
2021/12/19 12:47:56;;;;;;;1.10;0.65;;;23.50;37.70;;;;;;5046299;28;20356;-59
2021/12/19 12:50:22;;;;;;;1.90;0.85;;;23.40;37.60;;;;;;5040315;28;20041;-60
2021/12/19 12:52:48;;;;;;;1.45;0.60;;;23.40;37.50;;;;;;5044094;28;20448;-60
2021/12/19 12:55:14;;;;;;;0.80;0.43;;;23.40;37.50;;;;;;5046989;28;20493;-62
2021/12/19 12:57:45;;;;;;;2.08;0.73;;;23.40;37.50;;;;;;5045399;28;20111;-59
2021/12/19 13:00:21;;;;;;;1.02;0.40;;;23.40;37.40;;;;;;5054718;28;20028;-61
2021/12/19 13:03:08;;;;;;;0.68;0.40;;;23.40;37.40;;;;;;5027107;28;20042;-58
2021/12/19 13:05:34;;;;;;;1.20;0.60;;;23.40;37.40;;;;;;4998624;28;20031;-56
2021/12/19 13:08:00;;;;;;;1.35;0.45;;;23.40;37.40;;;;;;4999518;28;20480;-58
2021/12/19 13:10:26;;;;;;;1.05;0.50;;;23.40;37.30;;;;;;5006672;28;20378;-53
2021/12/19 13:12:52;;;;;;;0.60;0.45;;;23.40;37.30;;;;;;5003339;28;20040;-57
2021/12/19 13:15:17;;;;;;;0.80;0.50;;;23.40;37.20;;;;;;5000235;28;20109;-55
2021/12/19 13:17:48;;;;;;;0.35;0.32;;;23.40;37.20;;;;;;5001004;28;20019;-59
2021/12/19 13:20:16;;;;;;;0.52;0.43;;;23.40;37.20;;;;;;5002509;28;20087;-57
2021/12/19 13:22:56;;;;;;;0.47;0.40;;;23.40;37.10;;;;;;5005358;28;20022;-58
2021/12/19 13:25:25;;;;;;;0.50;0.40;;;23.40;37.10;;;;;;5013285;28;20069;-59
2021/12/19 13:27:57;;;;;;;0.80;0.40;;;23.40;37.20;;;;;;5012955;28;20038;-56
2021/12/19 13:30:31;;;;;;;1.85;0.70;;;23.30;37.10;;;;;;5015862;28;20042;-60
2021/12/19 13:32:58;;;;;;;0.57;0.35;;;23.40;37.10;;;;;;5015327;28;20317;-58
2021/12/19 13:35:35;;;;;;;2.10;0.47;;;23.30;37.00;;;;;;5002667;28;20018;-58
2021/12/19 13:38:09;;;;;;;1.58;0.68;;;23.30;37.00;;;;;;4998736;28;20323;-61
2021/12/19 13:40:50;;;;;;;1.48;0.30;;;23.30;37.00;;;;;;4999383;28;20022;-58
2021/12/19 13:43:25;;;;;;;0.73;0.20;;;23.30;36.90;;;;;;4998958;28;20026;-55
2021/12/19 13:46:08;;;;;;;0.60;0.30;;;23.30;37.00;;;;;;5003687;28;20023;-59
2021/12/19 13:48:40;;;;;;;0.52;0.32;;;23.30;36.90;;;;;;5014997;28;20049;-58
2021/12/19 13:51:13;;;;;;;0.30;0.25;;;23.30;36.90;;;;;;4996538;28;20026;-57
2021/12/19 13:53:43;;;;;;;0.65;0.30;;;23.30;36.90;;;;;;5016521;28;20045;-58
2021/12/19 13:56:11;;;;;;;0.40;0.20;;;23.30;36.90;;;;;;4999905;28;20019;-58
2021/12/19 13:58:46;;;;;;;0.93;0.40;;;23.30;36.90;;;;;;5010843;28;20373;-58
2021/12/19 14:01:32;;;;;;;0.60;0.30;;;23.30;36.90;;;;;;4998980;28;20029;-60
2021/12/19 14:04:02;;;;;;;0.68;0.40;;;23.30;37.60;;;;;;5041205;28;20029;-62
2021/12/19 14:06:36;;;;;;;0.57;0.40;;;23.20;36.90;;;;;;5035413;28;20021;-57
2021/12/19 14:09:18;;;;;;;2.15;0.57;;;23.30;36.80;;;;;;5034303;28;20089;-61